Bejou, Minnesota
Current Conditions -  °F | °C
As of 5:55 AM on Friday 26 Dec 2014 (Local Time) from K3N8 Reporting Station
Overcast Overcast  
Wind Chill: 13°   Ceiling: 1300
Heat Index: 23°   Visibility: 10mi
Dew Point: 20°   Wind: 9mph
Humidity: 90%   Direction: 10°N
Pressure: 30.04"   Gusts: NA
Location:  47.44°N, 95.98°W
Report Text: K3N8 261155Z AUTO 01008KT 10SM OVC013 M05/M07 A3004 RMK AO2 T10521066 11038 21052
Loading
Personal Weather Stations






























Interactive Weather Map New forecast layout! Learn more

10-Day Weather Forecast

Advertisements
Track Severe Weather on mobile